CZ-0072 weather

BURANOS Aires UL
Central Bohemian Region, Czechia

Public forecast

Using degrees Celsius for public forecast. Weather courtesy of forecast.io.

METAR (pilot weather report)

Closest report is Václav Havel Airport Prague, 10.2 nm (18.8 km) ENE. Retrieved 2019/01/17 08:30 UTC (9 minutes ago):

LKPR 170830Z 22018KT 9999 SCT027 05/M00 Q1004 NOSIG

TAF (pilot weather forecast)

Forecast is more than 12 hours old.

Closest forecast is Václav Havel Airport Prague, 10.2 nm (18.8 km) ENE. Retrieved 2019/01/16 00:18 UTC (1 day ago):

TAF LKPR 162300Z 1700/1806 22016KT CAVOK TEMPO 1700/1800 23020G30KT PROB30 TEMPO 1701/1704 24024G36KT BECMG 1710/1712 9999 SCT030 TEMPO 1715/1800 RA BKN023 BECMG 1800/1802 27012KT TEMPO 1802/1806 4000 RASN BKN020